Time;durP1;ratioP1;P1;durP2;ratioP2;P2;SDS_P1;SDS_P2;PMS_P1;PMS_P2;Temp;Humidity;BMP_temperature;BMP_pressure;BME280_temperature;BME280_humidity;BME280_pressure;Samples;Min_cycle;Max_cycle;Signal;HPM_P1;HPM_P2
2023/08/24 00:00:11;;;;;;;3.88;3.55;;;;;;;20.72;63.95;93665.25;512537;28;1119;-47
2023/08/24 00:00:27;;;;;;;3.92;3.53;;;;;;;20.74;63.78;93668.16;513786;28;864;-48
2023/08/24 00:00:42;;;;;;;4.35;3.63;;;;;;;20.75;63.84;93669.63;513866;28;876;-46
2023/08/24 00:00:58;;;;;;;4.80;3.73;;;;;;;20.75;63.73;93672.41;513809;28;785;-48
2023/08/24 00:01:14;;;;;;;4.60;3.78;;;;;;;20.75;63.67;93666.81;513813;28;1186;-49
2023/08/24 00:01:29;;;;;;;4.47;3.95;;;;;;;20.76;63.73;93667.56;513329;28;1676;-48
2023/08/24 00:01:44;;;;;;;4.20;3.77;;;;;;;20.76;63.65;93673.16;513708;28;903;-48
2023/08/24 00:02:00;;;;;;;4.07;3.67;;;;;;;20.76;63.57;93662.69;513575;28;1919;-48
2023/08/24 00:02:15;;;;;;;4.40;4.00;;;;;;;20.76;63.51;93661.94;513820;28;993;-48
2023/08/24 00:02:31;;;;;;;4.17;3.77;;;;;;;20.75;63.50;93668.88;513740;28;824;-48
2023/08/24 00:02:46;;;;;;;4.03;3.63;;;;;;;20.73;63.41;93665.97;513862;28;810;-47
2023/08/24 00:03:02;;;;;;;4.20;3.67;;;;;;;20.67;63.50;93651.56;513837;28;829;-48
2023/08/24 00:03:18;;;;;;;4.82;3.80;;;;;;;20.73;63.55;93666.69;515629;28;1093;-50
2023/08/24 00:03:34;;;;;;;4.20;3.80;;;;;;;20.72;63.71;93670.84;515649;28;829;-48
2023/08/24 00:03:49;;;;;;;3.80;3.50;;;;;;;20.73;63.61;93665.97;515643;28;799;-47
2023/08/24 00:04:04;;;;;;;4.30;3.70;;;;;;;20.73;63.82;93660.34;515668;28;855;-47
2023/08/24 00:04:20;;;;;;;4.63;3.90;;;;;;;20.72;63.68;93670.84;515653;28;959;-47
2023/08/24 00:04:35;;;;;;;3.97;3.57;;;;;;;20.73;63.70;93671.56;514679;28;1710;-47
2023/08/24 00:04:50;;;;;;;4.18;3.78;;;;;;;20.72;63.55;93662.44;515607;28;1078;-48
2023/08/24 00:05:06;;;;;;;3.97;3.57;;;;;;;20.72;63.58;93668.06;513840;28;881;-47
2023/08/24 00:05:22;;;;;;;3.95;3.45;;;;;;;20.72;63.46;93665.25;511895;28;800;-49
2023/08/24 00:05:37;;;;;;;4.30;3.70;;;;;;;20.72;63.33;93667.31;513723;28;860;-49
2023/08/24 00:05:52;;;;;;;4.57;3.70;;;;;;;20.52;63.38;93638.78;513757;28;781;-47
2023/08/24 00:06:08;;;;;;;4.30;3.63;;;;;;;20.70;63.17;93665.13;513781;28;1135;-48
2023/08/24 00:06:23;;;;;;;4.93;3.83;;;;;;;20.69;63.22;93669.25;513516;28;1167;-47
2023/08/24 00:06:38;;;;;;;5.47;4.13;;;;;;;20.65;63.20;93666.22;512841;28;839;-48
2023/08/24 00:06:54;;;;;;;4.97;4.15;;;;;;;20.67;63.20;93666.34;511925;28;823;-47
2023/08/24 00:07:09;;;;;;;4.97;3.80;;;;;;;20.67;63.16;93657.19;512245;28;1740;-47
2023/08/24 00:07:25;;;;;;;5.03;3.67;;;;;;;20.65;63.10;93669.03;513284;28;1440;-48
2023/08/24 00:07:41;;;;;;;4.63;3.53;;;;;;;20.65;63.06;93659.88;513697;28;1465;-48
2023/08/24 00:07:56;;;;;;;4.00;3.40;;;;;;;20.64;63.11;93667.53;513867;28;832;-47
2023/08/24 00:08:12;;;;;;;4.43;3.70;;;;;;;20.63;63.18;93665.34;513869;28;817;-47
2023/08/24 00:08:27;;;;;;;4.32;3.78;;;;;;;20.62;63.13;93661.81;513805;28;863;-47
2023/08/24 00:08:43;;;;;;;3.90;3.50;;;;;;;20.61;63.16;93663.16;513908;28;1168;-47
2023/08/24 00:08:59;;;;;;;3.85;3.45;;;;;;;20.61;63.23;93662.44;513719;28;891;-48
2023/08/24 00:09:15;;;;;;;4.20;3.80;;;;;;;20.59;63.21;93659.50;513757;28;1075;-48
2023/08/24 00:09:30;;;;;;;4.85;3.97;;;;;;;20.58;63.16;93661.56;513845;28;801;-47
2023/08/24 00:09:45;;;;;;;4.93;3.97;;;;;;;20.57;63.19;93665.75;513803;28;828;-48
2023/08/24 00:10:01;;;;;;;4.23;3.80;;;;;;;20.56;63.21;93667.06;513783;28;892;-47
2023/08/24 00:10:17;;;;;;;4.82;3.42;;;;;;;20.55;63.24;93667.69;513874;28;920;-47
2023/08/24 00:10:33;;;;;;;5.03;3.42;;;;;;;20.53;63.27;93662.66;513765;28;1148;-47
2023/08/24 00:10:48;;;;;;;4.87;3.77;;;;;;;20.54;63.31;93663.41;512620;28;1513;-47
2023/08/24 00:11:05;;;;;;;4.38;3.90;;;;;;;20.53;63.39;93673.16;513795;28;852;-47
2023/08/24 00:11:20;;;;;;;4.68;3.75;;;;;;;20.52;63.43;93677.31;513736;28;1624;-47
2023/08/24 00:11:37;;;;;;;4.78;3.70;;;;;;;20.51;63.56;93673.75;512679;28;1585;-46
2023/08/24 00:11:53;;;;;;;4.38;3.78;;;;;;;20.49;63.47;93675.75;513755;28;896;-47
2023/08/24 00:12:08;;;;;;;4.30;3.80;;;;;;;20.48;63.60;93672.19;511990;28;1068;-46
2023/08/24 00:12:24;;;;;;;4.47;3.87;;;;;;;20.46;63.80;93672.06;513800;28;1490;-50
2023/08/24 00:12:39;;;;;;;4.50;3.90;;;;;;;20.47;63.87;93673.53;513679;28;926;-48
2023/08/24 00:12:55;;;;;;;4.40;3.70;;;;;;;20.47;63.96;93678.38;513797;28;934;-50
2023/08/24 00:13:10;;;;;;;4.17;3.67;;;;;;;20.46;64.14;93674.88;513847;28;817;-47
2023/08/24 00:13:26;;;;;;;4.40;3.90;;;;;;;20.45;64.36;93672.66;513776;28;812;-47
2023/08/24 00:13:48;;;;;;;4.43;3.95;;;;;;;20.37;64.47;93670.84;513619;28;1184;-49
2023/08/24 00:14:04;;;;;;;4.35;3.92;;;;;;;20.42;64.57;93677.44;513808;28;1147;-48
2023/08/24 00:14:19;;;;;;;4.93;3.83;;;;;;;20.42;64.63;93673.91;513772;28;874;-47
2023/08/24 00:14:35;;;;;;;5.47;4.23;;;;;;;20.41;64.61;93670.34;512888;28;1573;-47
2023/08/24 00:14:50;;;;;;;4.65;4.15;;;;;;;20.42;64.61;93679.50;512412;28;1007;-48
2023/08/24 00:15:08;;;;;;;4.43;4.03;;;;;;;20.34;64.47;93668.50;511854;28;778;-47
2023/08/24 00:15:24;;;;;;;4.63;4.20;;;;;;;20.41;64.49;93675.97;512206;28;793;-48
2023/08/24 00:15:39;;;;;;;4.80;4.30;;;;;;;20.40;64.39;93677.28;513342;28;839;-47
2023/08/24 00:15:55;;;;;;;4.77;4.27;;;;;;;20.41;64.42;93675.97;513754;28;882;-49
2023/08/24 00:16:10;;;;;;;4.45;3.90;;;;;;;20.40;64.20;93672.41;513861;28;817;-49
2023/08/24 00:16:26;;;;;;;4.27;3.87;;;;;;;20.41;64.38;93673.16;513794;28;841;-47
2023/08/24 00:16:42;;;;;;;4.63;4.13;;;;;;;20.39;64.36;93673.78;513746;28;1107;-49
2023/08/24 00:16:57;;;;;;;4.55;3.80;;;;;;;20.40;64.51;93672.41;513810;28;973;-46
2023/08/24 00:17:13;;;;;;;4.90;3.80;;;;;;;20.40;64.47;93675.22;512941;28;1672;-48
2023/08/24 00:17:29;;;;;;;4.20;3.67;;;;;;;20.41;64.47;93678.75;513719;28;856;-47
2023/08/24 00:17:44;;;;;;;4.03;3.63;;;;;;;20.40;64.79;93677.28;513774;28;982;-48
2023/08/24 00:18:00;;;;;;;4.32;3.92;;;;;;;20.40;64.42;93680.09;512988;28;1346;-47
2023/08/24 00:18:18;;;;;;;4.47;4.07;;;;;;;20.40;64.51;93668.88;512936;28;1274;-47
2023/08/24 00:18:33;;;;;;;4.25;3.83;;;;;;;20.42;64.63;93676.69;513797;28;879;-47
2023/08/24 00:18:49;;;;;;;4.72;3.83;;;;;;;20.42;64.69;93671.09;513838;28;1034;-49
2023/08/24 00:19:04;;;;;;;4.93;3.80;;;;;;;20.40;64.65;93675.22;513793;28;1173;-47
2023/08/24 00:19:19;;;;;;;5.17;3.77;;;;;;;20.41;64.73;93673.16;513858;28;860;-47
2023/08/24 00:19:35;;;;;;;5.32;4.10;;;;;;;20.42;64.80;93673.91;513849;28;924;-47
2023/08/24 00:19:50;;;;;;;4.60;4.00;;;;;;;20.42;64.75;93668.28;513621;28;802;-46
2023/08/24 00:20:10;;;;;;;4.30;3.90;;;;;;;20.42;64.62;93674.63;513687;28;762;-46
2023/08/24 00:20:27;;;;;;;4.63;3.97;;;;;;;20.42;64.71;93674.63;513606;28;973;-47
2023/08/24 00:20:42;;;;;;;4.82;4.05;;;;;;;20.42;64.58;93678.16;513794;28;856;-47
2023/08/24 00:20:58;;;;;;;5.37;4.40;;;;;;;20.42;64.69;93671.81;513586;28;793;-47
2023/08/24 00:21:19;;;;;;;5.20;4.03;;;;;;;20.41;64.66;93670.34;513655;28;1198;-48
2023/08/24 00:21:34;;;;;;;5.78;4.20;;;;;;;20.41;64.74;93681.56;512874;28;1717;-47
2023/08/24 00:21:49;;;;;;;5.40;4.20;;;;;;;20.41;64.85;93678.75;513623;28;2419;-47
2023/08/24 00:22:05;;;;;;;4.40;3.90;;;;;;;20.40;64.72;93680.84;513727;28;1926;-47
2023/08/24 00:22:20;;;;;;;4.72;4.20;;;;;;;20.39;65.04;93676.56;513842;28;773;-47
2023/08/24 00:22:37;;;;;;;5.13;4.43;;;;;;;20.40;64.80;93678.03;513788;28;1000;-47
2023/08/24 00:22:53;;;;;;;4.88;4.25;;;;;;;20.39;64.74;93670.97;513876;28;877;-47
2023/08/24 00:23:08;;;;;;;5.37;4.37;;;;;;;20.40;64.86;93674.47;513866;28;864;-47
2023/08/24 00:23:25;;;;;;;5.20;4.45;;;;;;;20.39;64.80;93676.56;513857;28;1026;-47
2023/08/24 00:23:40;;;;;;;4.25;3.85;;;;;;;20.39;64.90;93675.84;513021;28;868;-48
2023/08/24 00:23:59;;;;;;;4.00;3.60;;;;;;;20.39;64.84;93678.66;513759;28;880;-48
2023/08/24 00:24:14;;;;;;;4.55;4.07;;;;;;;20.39;64.73;93681.44;513796;28;1143;-49
2023/08/24 00:24:30;;;;;;;4.87;4.10;;;;;;;20.38;64.79;93677.16;513167;28;1653;-48
2023/08/24 00:24:45;;;;;;;4.40;3.93;;;;;;;20.38;64.84;93674.38;512789;28;1760;-47
2023/08/24 00:25:01;;;;;;;4.38;3.92;;;;;;;20.36;64.88;93679.84;513662;28;778;-49
2023/08/24 00:25:16;;;;;;;4.70;4.13;;;;;;;20.37;64.83;93678.53;512340;28;781;-47
2023/08/24 00:25:31;;;;;;;4.77;4.20;;;;;;;20.35;64.83;93672.78;513457;28;1107;-46
2023/08/24 00:25:47;;;;;;;4.30;3.75;;;;;;;20.35;64.89;93673.53;514233;28;758;-46
2023/08/24 00:26:02;;;;;;;4.20;3.80;;;;;;;20.36;64.95;93677.78;514253;28;802;-47
2023/08/24 00:26:17;;;;;;;4.97;4.17;;;;;;;20.37;64.97;93681.31;514282;28;828;-47
2023/08/24 00:26:33;;;;;;;4.90;3.90;;;;;;;20.35;64.91;93679.13;514188;28;872;-48
2023/08/24 00:26:48;;;;;;;4.13;3.73;;;;;;;20.34;64.89;93676.91;514221;28;915;-47
2023/08/24 00:27:04;;;;;;;4.37;3.97;;;;;;;20.35;64.89;93675.59;514148;28;1173;-46
2023/08/24 00:27:19;;;;;;;4.68;4.07;;;;;;;20.33;64.88;93673.41;513340;28;1708;-47
2023/08/24 00:27:35;;;;;;;4.90;4.20;;;;;;;20.34;65.05;93682.53;514046;28;828;-48
2023/08/24 00:27:53;;;;;;;4.90;4.40;;;;;;;20.32;65.22;93682.41;514083;28;943;-46
2023/08/24 00:28:08;;;;;;;5.20;4.22;;;;;;;20.29;65.33;93670.34;514175;28;926;-47
2023/08/24 00:28:24;;;;;;;5.13;3.93;;;;;;;20.30;65.26;93677.41;512632;28;895;-47
2023/08/24 00:28:40;;;;;;;5.00;4.03;;;;;;;20.30;65.32;93669.00;515098;28;1558;-47
2023/08/24 00:28:55;;;;;;;5.20;4.30;;;;;;;20.31;65.42;93681.66;516069;28;918;-49
2023/08/24 00:29:11;;;;;;;5.57;4.40;;;;;;;20.29;65.70;93680.84;516065;28;888;-47
2023/08/24 00:29:26;;;;;;;4.80;4.23;;;;;;;20.26;65.85;93676.44;516067;28;805;-47
2023/08/24 00:29:41;;;;;;;5.22;4.18;;;;;;;20.23;66.18;93675.56;516062;28;805;-47
2023/08/24 00:29:57;;;;;;;5.97;4.07;;;;;;;20.24;66.07;93673.50;516112;28;777;-47
2023/08/24 00:30:12;;;;;;;5.27;4.13;;;;;;;20.23;66.16;93674.84;516043;28;967;-46
2023/08/24 00:30:28;;;;;;;5.10;4.28;;;;;;;20.22;66.08;93679.72;515750;28;840;-48
2023/08/24 00:30:43;;;;;;;5.43;4.17;;;;;;;20.22;66.09;93676.91;514249;28;916;-47
2023/08/24 00:30:58;;;;;;;5.82;4.18;;;;;;;20.21;65.83;93680.31;514205;28;765;-47
2023/08/24 00:31:16;;;;;;;5.60;4.30;;;;;;;20.20;65.97;93674.00;514271;28;1085;-47
2023/08/24 00:31:32;;;;;;;4.80;4.28;;;;;;;20.21;65.90;93681.06;513507;28;1695;-47
2023/08/24 00:31:47;;;;;;;4.57;4.15;;;;;;;20.22;65.82;93684.59;513066;28;943;-47
2023/08/24 00:32:03;;;;;;;5.45;4.45;;;;;;;20.21;65.72;93677.50;513274;28;861;-47
2023/08/24 00:32:18;;;;;;;5.73;4.40;;;;;;;20.22;65.75;93673.38;512241;28;924;-46
2023/08/24 00:32:35;;;;;;;5.43;4.22;;;;;;;20.23;65.75;93672.75;513817;28;928;-47
2023/08/24 00:32:50;;;;;;;4.63;4.10;;;;;;;20.23;65.65;93677.63;514219;28;1005;-47
2023/08/24 00:33:05;;;;;;;4.67;4.17;;;;;;;20.22;65.82;93676.91;514120;28;1088;-46
2023/08/24 00:33:21;;;;;;;4.60;4.03;;;;;;;20.21;65.93;93675.44;514272;28;824;-46
2023/08/24 00:33:36;;;;;;;4.43;3.87;;;;;;;20.24;65.78;93673.50;514184;28;959;-46
2023/08/24 00:33:51;;;;;;;5.40;4.17;;;;;;;20.23;65.86;93669.22;514149;28;863;-47
2023/08/24 00:34:07;;;;;;;5.90;4.57;;;;;;;20.24;65.92;93670.69;514184;28;1013;-46
2023/08/24 00:34:22;;;;;;;5.23;4.30;;;;;;;20.23;65.83;93678.38;514168;28;962;-47
2023/08/24 00:34:37;;;;;;;4.60;3.77;;;;;;;20.24;65.81;93670.69;513510;28;1601;-47
2023/08/24 00:34:53;;;;;;;4.93;4.27;;;;;;;20.23;65.76;93669.97;512704;28;904;-45
2023/08/24 00:35:10;;;;;;;5.10;4.60;;;;;;;20.22;65.73;93671.31;513714;28;783;-46
2023/08/24 00:35:25;;;;;;;4.67;4.20;;;;;;;20.24;65.74;93677.03;514214;28;872;-46
2023/08/24 00:35:40;;;;;;;4.72;4.22;;;;;;;20.24;65.72;93671.44;513737;28;1232;-46
2023/08/24 00:36:02;;;;;;;4.97;4.37;;;;;;;20.26;65.68;93673.63;513773;28;1156;-48
2023/08/24 00:36:18;;;;;;;4.30;3.90;;;;;;;20.25;65.67;93670.09;512919;28;1677;-46
2023/08/24 00:36:33;;;;;;;4.60;4.15;;;;;;;20.26;65.71;93673.63;513802;28;789;-47
2023/08/24 00:36:49;;;;;;;5.10;4.60;;;;;;;20.26;65.68;93673.63;512300;28;852;-46
2023/08/24 00:37:04;;;;;;;5.30;4.40;;;;;;;20.24;65.55;93671.44;512163;28;816;-47
2023/08/24 00:37:20;;;;;;;5.13;4.20;;;;;;;20.26;65.73;93671.56;512954;28;1790;-47
2023/08/24 00:37:35;;;;;;;4.33;3.93;;;;;;;20.26;65.76;93679.25;514220;28;839;-46
2023/08/24 00:37:51;;;;;;;4.47;3.88;;;;;;;20.27;65.71;93675.81;514204;28;828;-46
2023/08/24 00:38:06;;;;;;;4.82;4.10;;;;;;;20.28;65.63;93665.34;514192;28;900;-46
2023/08/24 00:38:22;;;;;;;4.97;4.10;;;;;;;20.27;65.67;93675.09;512609;28;892;-46
2023/08/24 00:38:37;;;;;;;6.20;4.33;;;;;;;20.28;65.72;93676.56;514277;28;789;-46
2023/08/24 00:38:53;;;;;;;5.95;4.60;;;;;;;20.28;65.67;93670.94;514269;28;800;-46
2023/08/24 00:39:08;;;;;;;5.30;4.50;;;;;;;20.28;65.63;93671.69;514157;28;1122;-47
2023/08/24 00:39:23;;;;;;;4.90;4.40;;;;;;;20.28;65.65;93665.34;513191;28;837;-46
2023/08/24 00:39:39;;;;;;;5.50;4.63;;;;;;;20.28;65.65;93673.75;516055;28;844;-46
2023/08/24 00:39:55;;;;;;;5.60;4.70;;;;;;;20.27;65.65;93664.59;516123;28;808;-46
2023/08/24 00:40:10;;;;;;;5.03;4.53;;;;;;;20.28;65.67;93673.75;516068;28;860;-45
2023/08/24 00:40:26;;;;;;;5.35;4.43;;;;;;;20.28;65.57;93666.06;516059;28;1027;-47
2023/08/24 00:40:43;;;;;;;5.00;4.27;;;;;;;20.28;65.55;93668.88;516078;28;870;-48
2023/08/24 00:40:59;;;;;;;4.65;4.25;;;;;;;20.27;65.49;93672.31;516127;28;893;-46
2023/08/24 00:41:14;;;;;;;5.20;4.70;;;;;;;20.28;65.63;93676.56;516064;28;888;-46
2023/08/24 00:41:30;;;;;;;5.00;4.40;;;;;;;20.28;65.66;93677.28;514726;28;1700;-46
2023/08/24 00:41:45;;;;;;;4.78;4.03;;;;;;;20.27;65.74;93672.31;513122;28;852;-46
2023/08/24 00:42:00;;;;;;;4.77;4.17;;;;;;;20.27;65.65;93672.31;513927;28;1914;-49
2023/08/24 00:42:16;;;;;;;4.80;4.23;;;;;;;20.26;65.54;93671.56;514337;28;806;-45
2023/08/24 00:42:31;;;;;;;4.95;4.30;;;;;;;20.27;65.73;93673.00;514144;28;865;-46
2023/08/24 00:42:47;;;;;;;5.03;4.53;;;;;;;20.26;65.69;93668.03;514236;28;891;-46
2023/08/24 00:43:02;;;;;;;5.13;4.57;;;;;;;20.27;65.49;93675.09;514208;28;1045;-47
2023/08/24 00:43:18;;;;;;;4.90;4.35;;;;;;;20.26;65.52;93673.63;514216;28;880;-47
2023/08/24 00:43:35;;;;;;;4.50;4.07;;;;;;;20.25;65.39;93669.34;514146;28;1075;-46
2023/08/24 00:43:51;;;;;;;4.20;3.80;;;;;;;20.25;65.34;93672.16;514216;28;881;-45
2023/08/24 00:44:07;;;;;;;4.97;4.13;;;;;;;20.26;65.29;93673.63;514190;28;809;-46
2023/08/24 00:44:22;;;;;;;4.80;4.15;;;;;;;20.26;65.36;93673.63;514149;28;979;-46
2023/08/24 00:44:38;;;;;;;4.60;4.00;;;;;;;20.25;65.24;93677.75;513046;28;1695;-47
2023/08/24 00:44:53;;;;;;;4.83;4.17;;;;;;;20.25;65.19;93672.16;513678;28;794;-46
2023/08/24 00:45:10;;;;;;;4.80;4.32;;;;;;;20.25;65.14;93666.53;514044;28;1114;-48
2023/08/24 00:45:26;;;;;;;5.03;4.53;;;;;;;20.26;65.13;93670.81;514194;28;829;-46
2023/08/24 00:45:41;;;;;;;4.63;4.20;;;;;;;20.25;64.95;93672.88;514137;28;856;-48
2023/08/24 00:46:00;;;;;;;4.50;4.03;;;;;;;20.24;64.98;93671.44;514134;28;919;-46
2023/08/24 00:46:15;;;;;;;4.13;3.70;;;;;;;20.24;64.98;93671.44;514200;28;827;-47
2023/08/24 00:46:30;;;;;;;4.10;3.70;;;;;;;20.24;64.89;93673.50;513896;28;942;-46
2023/08/24 00:46:46;;;;;;;4.50;3.65;;;;;;;20.23;64.84;93675.56;514110;28;888;-46
2023/08/24 00:47:01;;;;;;;5.00;3.93;;;;;;;20.22;64.79;93671.31;514050;28;887;-46
2023/08/24 00:47:17;;;;;;;4.90;4.00;;;;;;;20.15;64.76;93658.22;513057;28;1732;-47
2023/08/24 00:47:32;;;;;;;4.25;3.70;;;;;;;20.23;64.71;93672.03;513544;28;778;-46
2023/08/24 00:47:48;;;;;;;4.47;3.83;;;;;;;20.23;64.80;93674.84;512791;28;856;-47
2023/08/24 00:48:04;;;;;;;4.60;3.90;;;;;;;20.23;64.77;93674.84;512930;28;1045;-47
2023/08/24 00:48:21;;;;;;;4.63;4.03;;;;;;;20.22;64.65;93668.50;513921;28;1044;-46
2023/08/24 00:48:36;;;;;;;5.68;4.38;;;;;;;20.22;64.75;93665.72;513639;28;936;-46
2023/08/24 00:48:52;;;;;;;4.90;4.10;;;;;;;20.22;64.67;93670.56;512003;29;1203;-48
2023/08/24 00:49:07;;;;;;;4.23;3.83;;;;;;;20.21;64.61;93672.66;512063;29;853;-47
2023/08/24 00:49:22;;;;;;;4.32;3.88;;;;;;;20.14;64.67;93653.94;511993;29;1132;-46
2023/08/24 00:49:38;;;;;;;4.93;3.80;;;;;;;20.21;64.68;93669.84;511918;29;985;-47
2023/08/24 00:49:53;;;;;;;4.47;3.70;;;;;;;20.22;64.59;93667.78;512071;29;793;-46
2023/08/24 00:50:09;;;;;;;4.18;3.78;;;;;;;20.21;64.55;93674.72;512008;29;943;-47
2023/08/24 00:50:25;;;;;;;4.75;4.25;;;;;;;20.22;64.77;93670.56;512041;28;824;-47
2023/08/24 00:50:40;;;;;;;4.53;4.10;;;;;;;20.21;64.66;93675.44;512348;28;884;-47
2023/08/24 00:51:00;;;;;;;4.25;3.85;;;;;;;20.20;64.55;93674.00;514022;28;891;-47
2023/08/24 00:51:16;;;;;;;4.32;3.75;;;;;;;20.20;64.43;93671.19;514028;28;878;-49
2023/08/24 00:51:31;;;;;;;5.00;4.07;;;;;;;20.19;64.55;93674.56;513650;28;1601;-47
2023/08/24 00:51:46;;;;;;;5.77;4.37;;;;;;;20.19;64.58;93668.94;514006;28;817;-47
2023/08/24 00:52:02;;;;;;;4.90;4.00;;;;;;;20.17;64.57;93674.44;512975;28;1137;-46
2023/08/24 00:52:18;;;;;;;4.13;3.80;;;;;;;20.17;64.62;93672.38;514101;28;794;-47
2023/08/24 00:52:34;;;;;;;4.00;3.60;;;;;;;20.15;64.68;93672.25;513528;28;992;-48
2023/08/24 00:52:49;;;;;;;4.40;3.90;;;;;;;20.15;64.60;93672.25;512086;29;786;-47
2023/08/24 00:53:04;;;;;;;5.10;4.23;;;;;;;20.14;64.61;93676.38;512010;29;869;-47
2023/08/24 00:53:21;;;;;;;4.45;3.80;;;;;;;20.13;64.61;93671.38;510129;29;821;-47
2023/08/24 00:53:36;;;;;;;4.13;3.60;;;;;;;20.13;64.80;93671.38;511898;29;1637;-47
2023/08/24 00:53:53;;;;;;;4.43;3.97;;;;;;;20.11;64.72;93674.81;512496;28;868;-47
2023/08/24 00:54:08;;;;;;;4.35;3.95;;;;;;;20.11;64.76;93674.06;513895;28;1103;-46
2023/08/24 00:54:23;;;;;;;4.63;3.90;;;;;;;20.10;64.81;93676.13;514054;28;808;-48
2023/08/24 00:54:39;;;;;;;5.63;4.30;;;;;;;20.09;65.02;93676.75;514050;28;778;-47
2023/08/24 00:54:54;;;;;;;6.55;4.10;;;;;;;20.07;65.03;93677.34;514024;28;1584;-48
2023/08/24 00:55:10;;;;;;;6.07;3.90;;;;;;;20.07;65.05;93676.63;513942;28;845;-47
2023/08/24 00:55:25;;;;;;;4.85;4.03;;;;;;;20.05;65.08;93676.50;513493;28;1732;-47
2023/08/24 00:55:41;;;;;;;4.50;3.90;;;;;;;20.04;65.24;93672.94;513773;28;1285;-47
2023/08/24 00:55:56;;;;;;;4.35;3.75;;;;;;;20.03;65.25;93679.16;512892;28;1597;-47
2023/08/24 00:56:12;;;;;;;4.10;3.70;;;;;;;20.04;65.27;93677.81;510067;29;868;-46
2023/08/24 00:56:29;;;;;;;4.53;3.88;;;;;;;19.96;65.35;93666.09;510806;29;1085;-47
2023/08/24 00:56:45;;;;;;;4.28;3.83;;;;;;;20.04;65.56;93675.75;512040;29;972;-47
2023/08/24 00:57:00;;;;;;;5.30;4.07;;;;;;;20.03;65.63;93673.56;511920;29;1096;-49
2023/08/24 00:57:15;;;;;;;5.38;4.13;;;;;;;20.03;65.55;93673.56;512040;29;896;-47
2023/08/24 00:57:31;;;;;;;4.43;3.67;;;;;;;20.04;65.63;93675.00;512568;28;847;-47
2023/08/24 00:57:47;;;;;;;4.90;4.28;;;;;;;20.02;65.61;93672.81;513954;28;872;-47
2023/08/24 00:58:03;;;;;;;5.90;4.65;;;;;;;20.02;65.73;93677.69;512020;28;1729;-46
2023/08/24 00:58:19;;;;;;;6.17;4.30;;;;;;;20.02;65.67;93672.81;511974;29;845;-48
2023/08/24 00:58:34;;;;;;;5.05;4.22;;;;;;;20.02;65.83;93677.69;511867;28;1037;-48
2023/08/24 00:58:51;;;;;;;6.15;4.38;;;;;;;20.02;65.85;93677.69;512058;29;1428;-48
2023/08/24 00:59:07;;;;;;;5.68;4.30;;;;;;;20.00;65.95;93675.50;509969;28;953;-47
2023/08/24 00:59:22;;;;;;;4.35;3.95;;;;;;;20.00;65.88;93675.50;510060;29;1033;-46
2023/08/24 00:59:37;;;;;;;4.53;4.10;;;;;;;20.00;66.04;93672.69;510008;29;840;-46
2023/08/24 00:59:53;;;;;;;5.55;4.60;;;;;;;20.00;66.08;93674.75;510651;29;873;-47
2023/08/24 01:00:12;;;;;;;5.93;4.47;;;;;;;19.99;66.11;93676.13;512474;28;1223;-46
2023/08/24 01:00:27;;;;;;;5.95;4.57;;;;;;;19.98;66.17;93680.97;514008;28;887;-46
2023/08/24 01:00:43;;;;;;;6.30;4.50;;;;;;;19.99;66.21;93676.13;514088;28;1132;-45
2023/08/24 01:00:58;;;;;;;5.53;4.40;;;;;;;19.98;66.14;93671.84;513541;28;1272;-46
2023/08/24 01:01:14;;;;;;;5.57;4.90;;;;;;;19.99;66.02;93676.81;513310;28;1111;-46
2023/08/24 01:01:29;;;;;;;5.35;4.47;;;;;;;20.00;66.03;93674.75;513833;28;1529;-47
2023/08/24 01:01:46;;;;;;;4.73;4.03;;;;;;;20.01;66.07;93674.16;512533;28;1030;-46
2023/08/24 01:02:02;;;;;;;4.32;3.92;;;;;;;19.99;66.02;93673.31;513444;28;1946;-46
2023/08/24 01:02:18;;;;;;;4.13;3.80;;;;;;;20.02;65.96;93686.09;511988;28;939;-47
2023/08/24 01:02:34;;;;;;;4.30;3.90;;;;;;;19.97;65.94;93670.34;513577;28;839;-48
2023/08/24 01:02:49;;;;;;;4.50;3.90;;;;;;;20.02;65.84;93672.09;513998;28;928;-47
2023/08/24 01:03:04;;;;;;;4.53;3.92;;;;;;;20.01;65.80;93674.16;513997;28;888;-46
2023/08/24 01:03:24;;;;;;;4.80;4.27;;;;;;;20.02;66.06;93672.09;513898;28;931;-48
2023/08/24 01:03:39;;;;;;;7.47;4.38;;;;;;;20.01;66.07;93665.75;514055;28;959;-47
2023/08/24 01:03:54;;;;;;;8.02;4.38;;;;;;;20.01;66.07;93671.34;514173;28;844;-47
2023/08/24 01:04:10;;;;;;;5.23;4.47;;;;;;;20.01;66.16;93670.63;514061;28;1107;-47
2023/08/24 01:04:26;;;;;;;4.53;4.03;;;;;;;20.02;65.98;93677.69;513948;28;904;-47
2023/08/24 01:04:42;;;;;;;4.47;4.00;;;;;;;20.01;65.96;93673.44;514052;28;872;-47
2023/08/24 01:05:00;;;;;;;4.35;3.95;;;;;;;20.01;65.94;93665.75;513871;28;873;-46
2023/08/24 01:05:16;;;;;;;4.38;3.97;;;;;;;20.00;65.85;93669.16;514076;28;862;-48
2023/08/24 01:05:31;;;;;;;4.53;4.13;;;;;;;20.00;66.00;93664.28;513366;28;1735;-46
2023/08/24 01:05:47;;;;;;;4.35;3.95;;;;;;;19.98;65.77;93661.38;513614;28;994;-47
2023/08/24 01:06:02;;;;;;;4.43;3.80;;;;;;;20.00;65.75;93669.91;514004;28;876;-47
2023/08/24 01:06:17;;;;;;;4.40;3.93;;;;;;;20.00;65.73;93669.16;514030;28;1692;-46
2023/08/24 01:06:33;;;;;;;4.78;4.10;;;;;;;19.99;65.52;93665.63;513873;28;1099;-46
2023/08/24 01:06:48;;;;;;;4.93;4.17;;;;;;;19.97;65.49;93668.28;514171;28;805;-47
2023/08/24 01:07:04;;;;;;;4.63;4.13;;;;;;;19.97;65.64;93665.50;513374;28;1327;-47
2023/08/24 01:07:20;;;;;;;4.25;3.85;;;;;;;19.92;65.70;93660.25;513857;28;1424;-47
2023/08/24 01:07:37;;;;;;;4.47;4.00;;;;;;;19.98;65.54;93666.22;514010;28;845;-47
2023/08/24 01:07:53;;;;;;;5.07;4.25;;;;;;;19.97;65.64;93668.28;513885;28;895;-48
2023/08/24 01:08:08;;;;;;;7.05;4.32;;;;;;;19.96;65.58;93664.03;512760;28;1700;-48
2023/08/24 01:08:24;;;;;;;9.07;4.20;;;;;;;19.97;65.51;93665.50;513758;28;794;-48
2023/08/24 01:08:39;;;;;;;7.43;4.22;;;;;;;19.97;65.56;93662.69;511938;29;1040;-47
2023/08/24 01:08:55;;;;;;;4.57;4.07;;;;;;;19.96;65.42;93663.31;511982;29;829;-47
2023/08/24 01:09:11;;;;;;;4.30;3.90;;;;;;;19.97;65.55;93668.28;510926;29;1113;-47
2023/08/24 01:09:26;;;;;;;4.03;3.67;;;;;;;19.96;65.50;93657.69;511595;28;1136;-47
2023/08/24 01:09:42;;;;;;;4.22;3.83;;;;;;;19.97;65.54;93671.09;509970;29;1202;-47
2023/08/24 01:09:57;;;;;;;5.03;4.20;;;;;;;19.95;65.57;93665.38;509188;29;837;-47
2023/08/24 01:10:12;;;;;;;4.95;4.07;;;;;;;19.88;65.39;93655.09;507153;29;1267;-47
2023/08/24 01:10:37;;;;;;;4.80;4.00;;;;;;;19.97;65.39;93659.88;507280;29;869;-46
2023/08/24 01:11:00;;;;;;;4.75;4.25;;;;;;;19.97;65.38;93670.34;510047;29;889;-46
2023/08/24 01:11:26;;;;;;;4.30;3.90;;;;;;;19.96;65.40;93669.66;510008;29;872;-49
2023/08/24 01:11:58;;;;;;;5.47;4.05;;;;;;;19.96;65.45;93666.09;508693;29;1768;-48
2023/08/24 01:12:50;;;;;;;4.57;4.10;;;;;;;19.94;65.63;93663.19;511880;29;940;-48
2023/08/24 01:13:10;;;;;;;4.53;3.80;;;;;;;19.93;65.94;93673.66;509971;29;971;-48
2023/08/24 01:13:41;;;;;;;4.07;3.67;;;;;;;19.92;66.00;93663.78;507992;29;924;-49
2023/08/24 01:14:04;;;;;;;4.32;3.85;;;;;;;19.92;65.88;93668.66;507905;29;1144;-48
2023/08/24 01:14:50;;;;;;;4.80;4.28;;;;;;;19.91;65.83;93673.53;510015;29;851;-48
2023/08/24 01:15:19;;;;;;;4.60;3.80;;;;;;;19.89;66.03;93676.19;509801;29;887;-50
2023/08/24 01:15:48;;;;;;;4.10;3.70;;;;;;;19.89;66.14;93675.47;509728;29;975;-48
2023/08/24 01:16:08;;;;;;;7.05;4.03;;;;;;;19.82;66.12;93665.94;509907;29;1039;-49
2023/08/24 01:16:29;;;;;;;7.40;4.05;;;;;;;19.87;65.95;93672.53;509982;29;915;-48
2023/08/24 01:16:46;;;;;;;4.72;4.13;;;;;;;19.89;65.97;93675.47;508056;29;1430;-49
2023/08/24 01:17:03;;;;;;;4.43;3.83;;;;;;;19.88;66.00;93674.72;509921;29;1179;-48
2023/08/24 01:17:22;;;;;;;4.20;3.80;;;;;;;19.89;66.05;93676.19;511974;29;829;-47
2023/08/24 01:17:39;;;;;;;4.18;3.78;;;;;;;19.89;66.09;93672.66;513731;28;908;-48
2023/08/24 01:17:59;;;;;;;4.32;3.85;;;;;;;19.88;65.79;93674.72;513911;28;916;-48
2023/08/24 01:18:16;;;;;;;4.00;3.60;;;;;;;19.89;65.76;93675.47;513887;28;1154;-47
2023/08/24 01:18:33;;;;;;;4.15;3.75;;;;;;;19.88;65.74;93674.72;515822;28;981;-47
2023/08/24 01:18:48;;;;;;;4.40;4.00;;;;;;;19.89;65.69;93678.25;515930;28;971;-48
2023/08/24 01:19:06;;;;;;;4.65;4.18;;;;;;;19.89;65.65;93675.47;513762;28;845;-48
2023/08/24 01:19:32;;;;;;;4.25;3.85;;;;;;;19.90;65.51;93672.06;511957;28;892;-50
2023/08/24 01:19:48;;;;;;;4.55;3.80;;;;;;;19.90;65.46;93671.34;513867;28;880;-48
2023/08/24 01:20:05;;;;;;;4.50;3.88;;;;;;;19.90;65.55;93679.75;513870;28;1028;-48